Time,TemperatureF,DewpointF,PressureIn,WindDirection,WindDirectionDegrees,WindSpeedMPH,WindSpeedGustMPH,Humidity,HourlyPrecipIn,Conditions,Clouds,dailyrainin,SoftwareType,DateUTC
2013-04-24 00:12:00,54.1,40.0,30.06,SE,127,0.0,1.0,59,0.00,,,0.00,weatherlink.com 1.10,2013-04-24 04:12:00,
2013-04-24 00:27:00,53.2,41.0,30.06,SE,127,0.0,1.0,63,0.00,,,0.00,weatherlink.com 1.10,2013-04-24 04:27:00,
2013-04-24 00:42:00,52.4,40.0,30.06,SE,127,0.0,0.0,63,0.00,,,0.00,weatherlink.com 1.10,2013-04-24 04:42:00,
2013-04-24 00:57:00,51.0,40.0,30.06,SSE,148,0.0,0.0,67,0.00,,,0.00,weatherlink.com 1.10,2013-04-24 04:57:00,
2013-04-24 01:12:00,49.4,41.0,30.05,SSE,148,0.0,0.0,72,0.00,,,0.00,weatherlink.com 1.10,2013-04-24 05:12:00,
2013-04-24 01:27:00,49.5,40.0,30.06,SSE,148,0.0,0.0,71,0.00,,,0.00,weatherlink.com 1.10,2013-04-24 05:27:00,
2013-04-24 01:42:00,49.4,41.0,30.06,SSE,148,0.0,0.0,72,0.00,,,0.00,weatherlink.com 1.10,2013-04-24 05:42:00,
2013-04-24 01:57:00,50.2,40.0,30.06,SSE,148,0.0,1.0,69,0.00,,,0.00,weatherlink.com 1.10,2013-04-24 05:57:00,
2013-04-24 02:12:00,49.7,41.0,30.06,SE,146,0.0,1.0,73,0.00,,,0.00,weatherlink.com 1.10,2013-04-24 06:12:00,
2013-04-24 02:27:00,49.1,40.0,30.06,SE,146,0.0,0.0,72,0.00,,,0.00,weatherlink.com 1.10,2013-04-24 06:27:00,
2013-04-24 02:42:00,49.0,41.0,30.06,SSE,147,0.0,1.0,73,0.00,,,0.00,weatherlink.com 1.10,2013-04-24 06:42:00,
2013-04-24 02:57:00,47.9,41.0,30.06,SE,140,0.0,0.0,76,0.00,,,0.00,weatherlink.com 1.10,2013-04-24 06:57:00,
2013-04-24 03:12:00,48.0,41.0,30.05,SE,134,0.0,1.0,76,0.00,,,0.00,weatherlink.com 1.10,2013-04-24 07:12:00,
2013-04-24 03:27:00,47.9,41.0,30.05,SE,131,0.0,1.0,76,0.00,,,0.00,weatherlink.com 1.10,2013-04-24 07:27:00,
2013-04-24 03:42:00,47.8,41.0,30.05,NE,44,3.0,3.0,78,0.00,,,0.00,weatherlink.com 1.10,2013-04-24 07:42:00,
2013-04-24 03:57:00,49.0,41.0,30.05,NNE,30,2.0,2.0,75,0.00,,,0.00,weatherlink.com 1.10,2013-04-24 07:57:00,
2013-04-24 04:12:00,48.9,41.0,30.04,NNE,23,0.0,2.0,75,0.00,,,0.00,weatherlink.com 1.10,2013-04-24 08:12:00,
2013-04-24 04:27:00,48.3,42.0,30.04,NNE,23,1.0,1.0,78,0.00,,,0.00,weatherlink.com 1.10,2013-04-24 08:27:00,
2013-04-24 04:42:00,48.7,42.0,30.04,NE,39,1.0,2.0,77,0.00,,,0.00,weatherlink.com 1.10,2013-04-24 08:42:00,
2013-04-24 04:57:00,49.2,43.0,30.04,NNE,25,0.0,1.0,78,0.00,,,0.00,weatherlink.com 1.10,2013-04-24 08:57:00,
2013-04-24 05:12:00,50.3,44.0,30.03,SE,134,0.0,2.0,78,0.00,,,0.00,weatherlink.com 1.10,2013-04-24 09:12:00,
2013-04-24 05:27:00,51.5,44.0,30.03,SSW,203,1.0,3.0,76,0.00,,,0.00,weatherlink.com 1.10,2013-04-24 09:27:00,
2013-04-24 05:42:00,54.4,45.0,30.03,South,177,2.0,2.0,71,0.00,,,0.00,weatherlink.com 1.10,2013-04-24 09:42:00,
2013-04-24 05:57:00,54.6,45.0,30.02,South,174,1.0,3.0,70,0.00,,,0.00,weatherlink.com 1.10,2013-04-24 09:57:00,
2013-04-24 06:12:00,54.8,45.0,30.02,South,171,3.0,10.0,70,0.00,,,0.00,weatherlink.com 1.10,2013-04-24 10:12:00,
2013-04-24 06:28:00,55.6,46.0,30.02,SSW,207,2.0,5.0,69,0.00,,,0.00,weatherlink.com 1.10,2013-04-24 10:28:00,
2013-04-24 06:43:00,55.7,46.0,30.03,SSE,149,1.0,5.0,69,0.00,,,0.00,weatherlink.com 1.10,2013-04-24 10:43:00,
2013-04-24 06:58:00,55.6,46.0,30.02,SSE,152,1.0,6.0,69,0.00,,,0.00,weatherlink.com 1.10,2013-04-24 10:58:00,
2013-04-24 07:13:00,54.1,45.0,30.02,NE,50,0.0,1.0,72,0.00,,,0.00,weatherlink.com 1.10,2013-04-24 11:13:00,
2013-04-24 07:28:00,53.7,46.0,30.02,NE,46,1.0,1.0,74,0.00,,,0.00,weatherlink.com 1.10,2013-04-24 11:28:00,
2013-04-24 07:43:00,53.8,46.0,30.01,NE,46,0.0,1.0,75,0.00,,,0.00,weatherlink.com 1.10,2013-04-24 11:43:00,
2013-04-24 08:13:00,57.0,48.0,30.00,SE,129,0.0,1.0,73,0.00,,,0.00,weatherlink.com 1.10,2013-04-24 12:13:00,
2013-04-24 08:28:00,57.5,49.0,30.01,SE,129,0.0,0.0,72,0.00,,,0.00,weatherlink.com 1.10,2013-04-24 12:28:00,
2013-04-24 08:43:00,59.0,48.0,30.00,WSW,256,3.0,6.0,66,0.00,,,0.00,weatherlink.com 1.10,2013-04-24 12:43:00,
2013-04-24 08:58:00,60.4,49.0,30.00,SE,141,4.0,6.0,66,0.00,,,0.00,weatherlink.com 1.10,2013-04-24 12:58:00,
2013-04-24 09:13:00,61.7,49.0,29.99,SSE,168,3.0,9.0,63,0.00,,,0.00,weatherlink.com 1.10,2013-04-24 13:13:00,
2013-04-24 09:28:00,62.6,48.0,29.98,South,172,8.0,10.0,60,0.00,,,0.00,weatherlink.com 1.10,2013-04-24 13:28:00,
2013-04-24 09:43:00,63.8,49.0,29.97,SSE,149,8.0,14.0,59,0.00,,,0.00,weatherlink.com 1.10,2013-04-24 13:43:00,
2013-04-24 09:58:00,65.0,49.0,29.96,South,177,2.0,8.0,56,0.00,,,0.00,weatherlink.com 1.10,2013-04-24 13:58:00,
2013-04-24 10:13:00,65.2,49.0,29.96,SW,219,7.0,11.0,56,0.00,,,0.00,weatherlink.com 1.10,2013-04-24 14:13:00,
2013-04-24 10:29:00,65.2,49.0,29.96,SSW,198,5.0,14.0,56,0.00,,,0.00,weatherlink.com 1.10,2013-04-24 14:29:00,
2013-04-24 10:43:00,65.5,49.0,29.95,SSE,167,9.0,20.0,55,0.00,,,0.00,weatherlink.com 1.10,2013-04-24 14:43:00,
2013-04-24 10:58:00,66.5,49.0,29.96,South,176,10.0,16.0,54,0.00,,,0.00,weatherlink.com 1.10,2013-04-24 14:58:00,
2013-04-24 11:13:00,67.0,49.0,29.98,South,174,5.0,12.0,52,0.00,,,0.00,weatherlink.com 1.10,2013-04-24 15:13:00,
2013-04-24 11:28:00,66.8,49.0,29.99,SW,214,7.0,17.0,53,0.00,,,0.00,weatherlink.com 1.10,2013-04-24 15:28:00,
2013-04-24 11:43:00,66.7,49.0,29.99,SSE,158,6.0,18.0,53,0.00,,,0.00,weatherlink.com 1.10,2013-04-24 15:43:00,
2013-04-24 11:58:00,67.3,49.0,29.99,SSW,193,2.0,12.0,53,0.00,,,0.00,weatherlink.com 1.10,2013-04-24 15:58:00,
2013-04-24 12:14:00,68.6,50.0,29.98,WNW,287,4.0,19.0,51,0.00,,,0.00,weatherlink.com 1.10,2013-04-24 16:14:00,
2013-04-24 12:30:00,68.8,50.0,29.96,SSW,203,9.0,16.0,52,0.00,,,0.00,weatherlink.com 1.10,2013-04-24 16:30:00,
2013-04-24 12:44:00,68.8,51.0,29.95,WSW,241,6.0,30.0,53,0.00,,,0.00,weatherlink.com 1.10,2013-04-24 16:44:00,
2013-04-24 12:59:00,69.6,51.0,29.96,SW,218,5.0,19.0,52,0.00,,,0.00,weatherlink.com 1.10,2013-04-24 16:59:00,
2013-04-24 13:15:00,69.5,51.0,29.96,WSW,240,2.0,25.0,52,0.00,,,0.00,weatherlink.com 1.10,2013-04-24 17:15:00,
2013-04-24 13:29:00,69.3,51.0,29.97,South,184,14.0,23.0,53,0.00,,,0.00,weatherlink.com 1.10,2013-04-24 17:29:00,
2013-04-24 13:59:00,68.5,52.0,29.97,SW,222,4.0,28.0,55,0.00,,,0.00,weatherlink.com 1.10,2013-04-24 17:59:00,
2013-04-24 14:15:00,68.2,51.0,29.96,SSE,168,12.0,26.0,55,0.00,,,0.00,weatherlink.com 1.10,2013-04-24 18:15:00,
2013-04-24 14:30:00,68.0,52.0,29.96,SSE,163,9.0,13.0,57,0.00,,,0.00,weatherlink.com 1.10,2013-04-24 18:30:00,
2013-04-24 14:44:00,67.5,52.0,29.97,SSW,194,14.0,20.0,59,0.00,,,0.00,weatherlink.com 1.10,2013-04-24 18:44:00,
2013-04-24 15:00:00,64.6,56.0,29.98,West,269,7.0,14.0,73,0.01,,,0.01,weatherlink.com 1.10,2013-04-24 19:00:00,
2013-04-24 15:30:00,60.3,55.0,29.98,South,170,8.0,26.0,83,0.05,,,0.05,weatherlink.com 1.10,2013-04-24 19:30:00,
2013-04-24 15:45:00,59.3,56.0,29.96,South,176,2.0,6.0,88,0.06,,,0.06,weatherlink.com 1.10,2013-04-24 19:45:00,
2013-04-24 16:00:00,59.0,57.0,29.97,NNW,327,0.0,2.0,92,0.05,,,0.06,weatherlink.com 1.10,2013-04-24 20:00:00,
2013-04-24 16:15:00,60.7,58.0,29.96,SSW,204,2.0,2.0,90,0.04,,,0.06,weatherlink.com 1.10,2013-04-24 20:15:00,
2013-04-24 16:31:00,63.5,59.0,29.97,South,172,2.0,8.0,85,0.01,,,0.06,weatherlink.com 1.10,2013-04-24 20:31:00,
2013-04-24 16:45:00,64.2,59.0,29.97,SSE,150,2.0,9.0,82,0.00,,,0.06,weatherlink.com 1.10,2013-04-24 20:45:00,
2013-04-24 17:01:00,63.0,57.0,29.97,SSE,163,3.0,9.0,81,0.00,,,0.06,weatherlink.com 1.10,2013-04-24 21:01:00,
2013-04-24 17:31:00,62.5,58.0,29.97,SSE,158,3.0,4.0,84,0.00,,,0.06,weatherlink.com 1.10,2013-04-24 21:31:00,
2013-04-24 17:46:00,62.3,55.0,29.98,WSW,245,5.0,18.0,78,0.00,,,0.06,weatherlink.com 1.10,2013-04-24 21:46:00,
2013-04-24 18:01:00,62.4,55.0,29.99,WSW,238,7.0,16.0,77,0.00,,,0.06,weatherlink.com 1.10,2013-04-24 22:01:00,
2013-04-24 18:16:00,58.3,53.0,30.02,NE,55,4.0,13.0,82,0.00,,,0.06,weatherlink.com 1.10,2013-04-24 22:16:00,
2013-04-24 18:31:00,54.4,50.0,30.04,NW,320,1.0,19.0,85,0.00,,,0.06,weatherlink.com 1.10,2013-04-24 22:31:00,
2013-04-24 18:46:00,52.9,49.0,30.05,NNW,328,2.0,18.0,86,0.00,,,0.06,weatherlink.com 1.10,2013-04-24 22:46:00,
2013-04-24 19:01:00,51.5,48.0,30.07,North,6,0.0,9.0,86,0.00,,,0.06,weatherlink.com 1.10,2013-04-24 23:01:00,
2013-04-24 19:16:00,50.4,47.0,30.09,North,354,5.0,8.0,88,0.00,,,0.06,weatherlink.com 1.10,2013-04-24 23:16:00,
2013-04-24 19:31:00,48.4,45.0,30.10,WSW,245,2.0,8.0,88,0.01,,,0.07,weatherlink.com 1.10,2013-04-24 23:31:00,
2013-04-24 19:46:00,47.2,44.0,30.12,WSW,253,1.0,12.0,88,0.01,,,0.07,weatherlink.com 1.10,2013-04-24 23:46:00,
2013-04-24 20:01:00,46.9,44.0,30.13,NNW,329,0.0,5.0,88,0.01,,,0.07,weatherlink.com 1.10,2013-04-25 00:01:00,
2013-04-24 20:16:00,46.6,44.0,30.14,WNW,293,1.0,5.0,90,0.01,,,0.07,weatherlink.com 1.10,2013-04-25 00:16:00,
2013-04-24 20:31:00,46.0,43.0,30.15,WSW,246,4.0,9.0,90,0.00,,,0.07,weatherlink.com 1.10,2013-04-25 00:31:00,
2013-04-24 20:46:00,45.5,43.0,30.17,West,266,3.0,9.0,90,0.00,,,0.07,weatherlink.com 1.10,2013-04-25 00:46:00,
2013-04-24 21:01:00,45.1,43.0,30.18,NW,309,1.0,7.0,91,0.00,,,0.07,weatherlink.com 1.10,2013-04-25 01:01:00,
2013-04-24 21:16:00,44.6,42.0,30.19,NNW,330,2.0,9.0,90,0.00,,,0.07,weatherlink.com 1.10,2013-04-25 01:16:00,
2013-04-24 21:31:00,44.1,42.0,30.20,NNE,28,4.0,13.0,91,0.00,,,0.07,weatherlink.com 1.10,2013-04-25 01:31:00,
2013-04-24 21:46:00,43.6,41.0,30.21,NNW,330,6.0,16.0,91,0.01,,,0.08,weatherlink.com 1.10,2013-04-25 01:46:00,
2013-04-24 22:01:00,42.4,40.0,30.23,NNE,13,2.0,14.0,90,0.01,,,0.08,weatherlink.com 1.10,2013-04-25 02:01:00,
2013-04-24 22:16:00,41.5,39.0,30.24,North,352,0.0,13.0,89,0.01,,,0.08,weatherlink.com 1.10,2013-04-25 02:16:00,
2013-04-24 22:32:00,41.1,38.0,30.25,North,4,1.0,9.0,90,0.01,,,0.08,weatherlink.com 1.10,2013-04-25 02:32:00,
2013-04-24 22:47:00,40.9,38.0,30.25,NNW,343,2.0,7.0,88,0.00,,,0.08,weatherlink.com 1.10,2013-04-25 02:47:00,
2013-04-24 23:02:00,41.0,37.0,30.25,NE,42,1.0,3.0,87,0.00,,,0.08,weatherlink.com 1.10,2013-04-25 03:02:00,
2013-04-24 23:17:00,41.2,37.0,30.26,NNE,18,0.0,8.0,85,0.00,,,0.08,weatherlink.com 1.10,2013-04-25 03:17:00,
2013-04-24 23:32:00,41.0,37.0,30.26,North,4,0.0,3.0,86,0.00,,,0.08,weatherlink.com 1.10,2013-04-25 03:32:00,
2013-04-24 23:47:00,40.6,37.0,30.26,North,4,0.0,0.0,87,0.00,,,0.08,weatherlink.com 1.10,2013-04-25 03:47:00,